sensor_id;sensor_type;location;lat;lon;timestamp;temperature;humidity
51902;DHT22;37929;53.218;6.548;2023-05-07T00:00:58;12.50;99.90
51902;DHT22;37929;53.218;6.548;2023-05-07T00:03:25;12.50;99.90
51902;DHT22;37929;53.218;6.548;2023-05-07T00:05:51;12.50;99.90
51902;DHT22;37929;53.218;6.548;2023-05-07T00:08:18;12.60;99.90
51902;DHT22;37929;53.218;6.548;2023-05-07T00:10:45;12.50;99.90
51902;DHT22;37929;53.218;6.548;2023-05-07T00:13:12;12.40;99.90
51902;DHT22;37929;53.218;6.548;2023-05-07T00:15:37;12.40;99.90
51902;DHT22;37929;53.218;6.548;2023-05-07T00:18:03;12.40;99.90
51902;DHT22;37929;53.218;6.548;2023-05-07T00:20:29;12.40;99.90
51902;DHT22;37929;53.218;6.548;2023-05-07T00:22:55;12.40;99.90
51902;DHT22;37929;53.218;6.548;2023-05-07T00:25:21;12.30;99.90
51902;DHT22;37929;53.218;6.548;2023-05-07T00:27:46;12.30;99.90
51902;DHT22;37929;53.218;6.548;2023-05-07T00:30:12;12.30;99.90
51902;DHT22;37929;53.218;6.548;2023-05-07T00:32:38;12.20;99.90
51902;DHT22;37929;53.218;6.548;2023-05-07T00:35:05;12.20;99.90
51902;DHT22;37929;53.218;6.548;2023-05-07T00:37:31;12.20;99.90
51902;DHT22;37929;53.218;6.548;2023-05-07T00:39:57;12.20;99.90
51902;DHT22;37929;53.218;6.548;2023-05-07T00:42:23;12.50;99.90
51902;DHT22;37929;53.218;6.548;2023-05-07T00:44:49;12.10;99.90
51902;DHT22;37929;53.218;6.548;2023-05-07T00:47:16;12.10;99.90
51902;DHT22;37929;53.218;6.548;2023-05-07T00:49:43;12.10;99.90
51902;DHT22;37929;53.218;6.548;2023-05-07T00:52:15;12.10;99.90
51902;DHT22;37929;53.218;6.548;2023-05-07T00:54:42;12.10;99.90
51902;DHT22;37929;53.218;6.548;2023-05-07T00:57:09;12.00;99.90
51902;DHT22;37929;53.218;6.548;2023-05-07T00:59:36;12.00;99.90
51902;DHT22;37929;53.218;6.548;2023-05-07T01:02:02;12.00;99.90
51902;DHT22;37929;53.218;6.548;2023-05-07T01:04:28;11.90;99.90
51902;DHT22;37929;53.218;6.548;2023-05-07T01:06:55;11.90;99.90
51902;DHT22;37929;53.218;6.548;2023-05-07T01:09:25;11.90;99.90
51902;DHT22;37929;53.218;6.548;2023-05-07T01:11:52;11.90;99.90
51902;DHT22;37929;53.218;6.548;2023-05-07T01:14:19;11.90;99.90
51902;DHT22;37929;53.218;6.548;2023-05-07T01:16:46;11.80;99.90
51902;DHT22;37929;53.218;6.548;2023-05-07T01:19:12;11.80;99.90
51902;DHT22;37929;53.218;6.548;2023-05-07T01:21:47;11.80;99.90
51902;DHT22;37929;53.218;6.548;2023-05-07T01:24:16;11.70;99.90
51902;DHT22;37929;53.218;6.548;2023-05-07T01:26:45;11.70;99.90
51902;DHT22;37929;53.218;6.548;2023-05-07T01:29:11;11.70;99.90
51902;DHT22;37929;53.218;6.548;2023-05-07T01:31:37;11.70;99.90
51902;DHT22;37929;53.218;6.548;2023-05-07T01:34:05;11.70;99.90
51902;DHT22;37929;53.218;6.548;2023-05-07T01:36:32;11.60;99.90
51902;DHT22;37929;53.218;6.548;2023-05-07T01:39:01;11.60;99.90
51902;DHT22;37929;53.218;6.548;2023-05-07T01:41:28;11.60;99.90
51902;DHT22;37929;53.218;6.548;2023-05-07T01:43:55;11.70;99.90
51902;DHT22;37929;53.218;6.548;2023-05-07T01:46:22;11.60;99.90
51902;DHT22;37929;53.218;6.548;2023-05-07T01:48:48;11.80;99.90
51902;DHT22;37929;53.218;6.548;2023-05-07T01:51:14;11.50;99.90
51902;DHT22;37929;53.218;6.548;2023-05-07T01:53:40;11.50;99.90
51902;DHT22;37929;53.218;6.548;2023-05-07T01:56:07;11.50;99.90
51902;DHT22;37929;53.218;6.548;2023-05-07T01:58:33;11.50;99.90
51902;DHT22;37929;53.218;6.548;2023-05-07T02:01:04;11.50;99.90
51902;DHT22;37929;53.218;6.548;2023-05-07T02:03:30;11.50;99.90
51902;DHT22;37929;53.218;6.548;2023-05-07T02:05:56;11.70;99.90
51902;DHT22;37929;53.218;6.548;2023-05-07T02:08:25;11.40;99.90
51902;DHT22;37929;53.218;6.548;2023-05-07T02:10:50;11.40;99.90
51902;DHT22;37929;53.218;6.548;2023-05-07T02:13:17;11.40;99.90
51902;DHT22;37929;53.218;6.548;2023-05-07T02:15:42;11.40;99.90
51902;DHT22;37929;53.218;6.548;2023-05-07T02:18:10;11.30;99.90
51902;DHT22;37929;53.218;6.548;2023-05-07T02:20:35;11.30;99.90
51902;DHT22;37929;53.218;6.548;2023-05-07T02:23:01;11.30;99.90
51902;DHT22;37929;53.218;6.548;2023-05-07T02:25:30;11.30;99.90
51902;DHT22;37929;53.218;6.548;2023-05-07T02:27:55;11.40;99.90
51902;DHT22;37929;53.218;6.548;2023-05-07T02:30:25;11.30;99.90
51902;DHT22;37929;53.218;6.548;2023-05-07T02:32:51;11.30;99.90
51902;DHT22;37929;53.218;6.548;2023-05-07T02:35:17;11.30;99.90
51902;DHT22;37929;53.218;6.548;2023-05-07T02:37:43;11.30;99.90
51902;DHT22;37929;53.218;6.548;2023-05-07T02:40:12;11.30;99.90
51902;DHT22;37929;53.218;6.548;2023-05-07T02:42:38;11.30;99.90
51902;DHT22;37929;53.218;6.548;2023-05-07T02:45:04;11.20;99.90
51902;DHT22;37929;53.218;6.548;2023-05-07T02:47:30;11.20;99.90
51902;DHT22;37929;53.218;6.548;2023-05-07T02:49:56;11.20;99.90
51902;DHT22;37929;53.218;6.548;2023-05-07T02:52:22;11.40;99.90
51902;DHT22;37929;53.218;6.548;2023-05-07T02:54:48;11.20;99.90
51902;DHT22;37929;53.218;6.548;2023-05-07T02:57:14;11.40;99.90
51902;DHT22;37929;53.218;6.548;2023-05-07T02:59:40;11.20;99.90
51902;DHT22;37929;53.218;6.548;2023-05-07T03:02:06;11.20;99.90
51902;DHT22;37929;53.218;6.548;2023-05-07T03:04:31;11.20;99.90
51902;DHT22;37929;53.218;6.548;2023-05-07T03:07:00;11.20;99.90
51902;DHT22;37929;53.218;6.548;2023-05-07T03:09:26;11.20;99.90
51902;DHT22;37929;53.218;6.548;2023-05-07T03:11:51;11.10;99.90
51902;DHT22;37929;53.218;6.548;2023-05-07T03:14:26;11.20;99.90
51902;DHT22;37929;53.218;6.548;2023-05-07T03:16:52;11.10;99.90
51902;DHT22;37929;53.218;6.548;2023-05-07T03:19:18;11.20;99.90
51902;DHT22;37929;53.218;6.548;2023-05-07T03:21:44;11.10;99.90
51902;DHT22;37929;53.218;6.548;2023-05-07T03:24:14;11.10;99.90
51902;DHT22;37929;53.218;6.548;2023-05-07T03:26:40;11.10;99.90
51902;DHT22;37929;53.218;6.548;2023-05-07T03:29:06;11.40;99.90
51902;DHT22;37929;53.218;6.548;2023-05-07T03:31:35;11.10;99.90
51902;DHT22;37929;53.218;6.548;2023-05-07T03:34:01;11.10;99.90
51902;DHT22;37929;53.218;6.548;2023-05-07T03:36:29;11.10;99.90
51902;DHT22;37929;53.218;6.548;2023-05-07T03:38:56;11.10;99.90
51902;DHT22;37929;53.218;6.548;2023-05-07T03:41:24;11.40;99.90
51902;DHT22;37929;53.218;6.548;2023-05-07T03:43:51;11.10;99.90
51902;DHT22;37929;53.218;6.548;2023-05-07T03:46:17;11.00;99.90
51902;DHT22;37929;53.218;6.548;2023-05-07T03:48:42;11.20;99.90
51902;DHT22;37929;53.218;6.548;2023-05-07T03:51:08;11.00;99.90
51902;DHT22;37929;53.218;6.548;2023-05-07T03:53:34;10.90;99.90
51902;DHT22;37929;53.218;6.548;2023-05-07T03:56:00;10.90;99.90
51902;DHT22;37929;53.218;6.548;2023-05-07T03:58:28;10.90;99.90
51902;DHT22;37929;53.218;6.548;2023-05-07T04:01:00;10.90;99.90
51902;DHT22;37929;53.218;6.548;2023-05-07T04:03:25;10.80;99.90
51902;DHT22;37929;53.218;6.548;2023-05-07T04:05:51;10.80;99.90
51902;DHT22;37929;53.218;6.548;2023-05-07T04:08:17;10.70;99.90
51902;DHT22;37929;53.218;6.548;2023-05-07T04:10:42;10.80;99.90
51902;DHT22;37929;53.218;6.548;2023-05-07T04:13:08;10.80;99.90
51902;DHT22;37929;53.218;6.548;2023-05-07T04:15:35;10.80;99.90
51902;DHT22;37929;53.218;6.548;2023-05-07T04:18:01;10.70;99.90
51902;DHT22;37929;53.218;6.548;2023-05-07T04:20:27;10.80;99.90
51902;DHT22;37929;53.218;6.548;2023-05-07T04:22:53;10.80;99.90
51902;DHT22;37929;53.218;6.548;2023-05-07T04:25:19;10.80;99.90
51902;DHT22;37929;53.218;6.548;2023-05-07T04:27:44;10.80;99.90
51902;DHT22;37929;53.218;6.548;2023-05-07T04:30:13;10.70;99.90
51902;DHT22;37929;53.218;6.548;2023-05-07T04:32:38;10.80;99.90
51902;DHT22;37929;53.218;6.548;2023-05-07T04:35:04;10.80;99.90
51902;DHT22;37929;53.218;6.548;2023-05-07T04:37:32;10.80;99.90
51902;DHT22;37929;53.218;6.548;2023-05-07T04:40:00;10.70;99.90
51902;DHT22;37929;53.218;6.548;2023-05-07T04:42:27;11.00;99.90
51902;DHT22;37929;53.218;6.548;2023-05-07T04:44:53;10.80;99.90
51902;DHT22;37929;53.218;6.548;2023-05-07T04:47:19;10.70;99.90
51902;DHT22;37929;53.218;6.548;2023-05-07T04:49:51;10.70;99.90
51902;DHT22;37929;53.218;6.548;2023-05-07T04:52:17;10.60;99.90
51902;DHT22;37929;53.218;6.548;2023-05-07T04:54:42;10.70;99.90
51902;DHT22;37929;53.218;6.548;2023-05-07T04:57:08;10.70;99.90
51902;DHT22;37929;53.218;6.548;2023-05-07T04:59:34;10.70;99.90
51902;DHT22;37929;53.218;6.548;2023-05-07T05:02:00;10.60;99.90
51902;DHT22;37929;53.218;6.548;2023-05-07T05:04:26;11.00;99.90
51902;DHT22;37929;53.218;6.548;2023-05-07T05:06:52;10.60;99.90
51902;DHT22;37929;53.218;6.548;2023-05-07T05:09:18;10.80;99.90
51902;DHT22;37929;53.218;6.548;2023-05-07T05:11:44;10.60;99.90
51902;DHT22;37929;53.218;6.548;2023-05-07T05:14:10;10.60;99.90
51902;DHT22;37929;53.218;6.548;2023-05-07T05:16:42;10.60;99.90
51902;DHT22;37929;53.218;6.548;2023-05-07T05:19:07;10.60;99.90
51902;DHT22;37929;53.218;6.548;2023-05-07T05:21:33;10.60;99.90
51902;DHT22;37929;53.218;6.548;2023-05-07T05:23:59;10.60;99.90
51902;DHT22;37929;53.218;6.548;2023-05-07T05:26:25;10.70;99.90
51902;DHT22;37929;53.218;6.548;2023-05-07T05:28:51;10.70;99.90
51902;DHT22;37929;53.218;6.548;2023-05-07T05:31:17;10.60;99.90
51902;DHT22;37929;53.218;6.548;2023-05-07T05:33:43;10.60;99.90
51902;DHT22;37929;53.218;6.548;2023-05-07T05:36:12;10.60;99.90
51902;DHT22;37929;53.218;6.548;2023-05-07T05:38:39;10.60;99.90
51902;DHT22;37929;53.218;6.548;2023-05-07T05:41:05;10.60;99.90
51902;DHT22;37929;53.218;6.548;2023-05-07T05:43:30;10.60;99.90
51902;DHT22;37929;53.218;6.548;2023-05-07T05:45:56;10.60;99.90
51902;DHT22;37929;53.218;6.548;2023-05-07T05:48:23;10.60;99.90
51902;DHT22;37929;53.218;6.548;2023-05-07T05:50:49;10.60;99.90
51902;DHT22;37929;53.218;6.548;2023-05-07T05:53:14;10.60;99.90
51902;DHT22;37929;53.218;6.548;2023-05-07T05:55:41;10.60;99.90
51902;DHT22;37929;53.218;6.548;2023-05-07T05:58:10;10.60;99.90
51902;DHT22;37929;53.218;6.548;2023-05-07T06:00:36;10.60;99.90
51902;DHT22;37929;53.218;6.548;2023-05-07T06:03:02;10.60;99.90
51902;DHT22;37929;53.218;6.548;2023-05-07T06:05:27;10.60;99.90
51902;DHT22;37929;53.218;6.548;2023-05-07T06:07:53;10.60;99.90
51902;DHT22;37929;53.218;6.548;2023-05-07T06:10:27;10.70;99.90
51902;DHT22;37929;53.218;6.548;2023-05-07T06:12:53;10.70;99.90
51902;DHT22;37929;53.218;6.548;2023-05-07T06:15:19;10.70;99.90
51902;DHT22;37929;53.218;6.548;2023-05-07T06:17:46;10.70;99.90
51902;DHT22;37929;53.218;6.548;2023-05-07T06:20:11;10.70;99.90
51902;DHT22;37929;53.218;6.548;2023-05-07T06:22:37;11.00;99.90
51902;DHT22;37929;53.218;6.548;2023-05-07T06:25:03;10.70;99.90
51902;DHT22;37929;53.218;6.548;2023-05-07T06:27:29;10.70;99.90
51902;DHT22;37929;53.218;6.548;2023-05-07T06:29:55;10.70;99.90
51902;DHT22;37929;53.218;6.548;2023-05-07T06:32:21;10.70;99.90
51902;DHT22;37929;53.218;6.548;2023-05-07T06:34:46;10.70;99.90
51902;DHT22;37929;53.218;6.548;2023-05-07T06:37:15;11.30;99.90
51902;DHT22;37929;53.218;6.548;2023-05-07T06:39:41;10.70;99.90
51902;DHT22;37929;53.218;6.548;2023-05-07T06:42:06;10.70;99.90
51902;DHT22;37929;53.218;6.548;2023-05-07T06:44:32;10.70;99.90
51902;DHT22;37929;53.218;6.548;2023-05-07T06:46:58;10.90;99.90
51902;DHT22;37929;53.218;6.548;2023-05-07T06:49:24;10.70;99.90
51902;DHT22;37929;53.218;6.548;2023-05-07T06:51:55;10.70;99.90
51902;DHT22;37929;53.218;6.548;2023-05-07T06:54:29;10.30;99.90
51902;DHT22;37929;53.218;6.548;2023-05-07T06:56:55;10.80;99.90
51902;DHT22;37929;53.218;6.548;2023-05-07T06:59:21;10.70;99.90
51902;DHT22;37929;53.218;6.548;2023-05-07T07:01:46;10.80;99.90
51902;DHT22;37929;53.218;6.548;2023-05-07T07:04:12;10.90;99.90
51902;DHT22;37929;53.218;6.548;2023-05-07T07:06:38;10.80;99.90
51902;DHT22;37929;53.218;6.548;2023-05-07T07:09:04;10.80;99.90
51902;DHT22;37929;53.218;6.548;2023-05-07T07:11:30;10.80;99.90
51902;DHT22;37929;53.218;6.548;2023-05-07T07:13:58;10.90;99.90
51902;DHT22;37929;53.218;6.548;2023-05-07T07:16:45;10.70;99.90
51902;DHT22;37929;53.218;6.548;2023-05-07T07:19:12;10.80;99.90
51902;DHT22;37929;53.218;6.548;2023-05-07T07:21:41;10.80;99.90
51902;DHT22;37929;53.218;6.548;2023-05-07T07:24:06;10.80;99.90
51902;DHT22;37929;53.218;6.548;2023-05-07T07:26:32;11.20;99.90
51902;DHT22;37929;53.218;6.548;2023-05-07T07:28:58;10.90;99.90
51902;DHT22;37929;53.218;6.548;2023-05-07T07:31:24;10.80;99.90
51902;DHT22;37929;53.218;6.548;2023-05-07T07:33:49;10.90;99.90
51902;DHT22;37929;53.218;6.548;2023-05-07T07:36:15;10.80;99.90
51902;DHT22;37929;53.218;6.548;2023-05-07T07:38:41;10.80;99.90
51902;DHT22;37929;53.218;6.548;2023-05-07T07:41:10;10.80;99.90
51902;DHT22;37929;53.218;6.548;2023-05-07T07:43:39;10.80;99.90
51902;DHT22;37929;53.218;6.548;2023-05-07T07:46:04;10.90;99.90
51902;DHT22;37929;53.218;6.548;2023-05-07T07:48:30;10.90;99.90
51902;DHT22;37929;53.218;6.548;2023-05-07T07:50:56;10.90;99.90
51902;DHT22;37929;53.218;6.548;2023-05-07T07:53:23;10.90;99.90
51902;DHT22;37929;53.218;6.548;2023-05-07T07:55:54;10.90;99.90
51902;DHT22;37929;53.218;6.548;2023-05-07T07:58:20;11.40;99.90
51902;DHT22;37929;53.218;6.548;2023-05-07T08:00:47;11.20;99.90
51902;DHT22;37929;53.218;6.548;2023-05-07T08:03:14;11.10;99.90
51902;DHT22;37929;53.218;6.548;2023-05-07T08:05:42;11.30;99.90
51902;DHT22;37929;53.218;6.548;2023-05-07T08:08:08;11.10;99.90
51902;DHT22;37929;53.218;6.548;2023-05-07T08:10:43;11.20;99.90
51902;DHT22;37929;53.218;6.548;2023-05-07T08:13:12;11.20;99.90
51902;DHT22;37929;53.218;6.548;2023-05-07T08:15:38;11.30;99.90
51902;DHT22;37929;53.218;6.548;2023-05-07T08:18:07;11.60;99.90
51902;DHT22;37929;53.218;6.548;2023-05-07T08:20:33;11.30;99.90
51902;DHT22;37929;53.218;6.548;2023-05-07T08:22:59;11.60;99.90
51902;DHT22;37929;53.218;6.548;2023-05-07T08:25:25;11.40;99.90
51902;DHT22;37929;53.218;6.548;2023-05-07T08:27:50;11.40;99.90
51902;DHT22;37929;53.218;6.548;2023-05-07T08:30:19;11.40;99.90
51902;DHT22;37929;53.218;6.548;2023-05-07T08:32:47;11.50;99.90
51902;DHT22;37929;53.218;6.548;2023-05-07T08:35:14;11.50;99.90
51902;DHT22;37929;53.218;6.548;2023-05-07T08:37:40;11.50;99.90
51902;DHT22;37929;53.218;6.548;2023-05-07T08:40:06;11.50;99.90
51902;DHT22;37929;53.218;6.548;2023-05-07T08:42:35;11.50;99.90
51902;DHT22;37929;53.218;6.548;2023-05-07T08:45:09;11.60;99.90
51902;DHT22;37929;53.218;6.548;2023-05-07T08:47:42;11.60;99.90
51902;DHT22;37929;53.218;6.548;2023-05-07T08:50:15;11.70;99.90
51902;DHT22;37929;53.218;6.548;2023-05-07T08:52:41;11.90;99.90
51902;DHT22;37929;53.218;6.548;2023-05-07T08:55:16;11.80;99.90
51902;DHT22;37929;53.218;6.548;2023-05-07T08:57:50;11.80;99.90
51902;DHT22;37929;53.218;6.548;2023-05-07T09:00:22;11.90;99.90
51902;DHT22;37929;53.218;6.548;2023-05-07T09:02:55;11.90;99.90
51902;DHT22;37929;53.218;6.548;2023-05-07T09:05:21;12.00;99.90
51902;DHT22;37929;53.218;6.548;2023-05-07T09:07:50;12.00;99.90
51902;DHT22;37929;53.218;6.548;2023-05-07T09:10:16;12.10;99.90
51902;DHT22;37929;53.218;6.548;2023-05-07T09:12:42;12.10;99.90
51902;DHT22;37929;53.218;6.548;2023-05-07T09:15:08;12.10;99.90
51902;DHT22;37929;53.218;6.548;2023-05-07T09:17:37;12.20;99.90
51902;DHT22;37929;53.218;6.548;2023-05-07T09:20:07;12.50;99.90
51902;DHT22;37929;53.218;6.548;2023-05-07T09:22:33;12.30;99.90
51902;DHT22;37929;53.218;6.548;2023-05-07T09:24:59;12.40;99.90
51902;DHT22;37929;53.218;6.548;2023-05-07T09:27:25;12.40;99.90
51902;DHT22;37929;53.218;6.548;2023-05-07T09:29:51;12.40;99.90
51902;DHT22;37929;53.218;6.548;2023-05-07T09:32:17;12.50;99.90
51902;DHT22;37929;53.218;6.548;2023-05-07T09:34:43;12.50;99.90
51902;DHT22;37929;53.218;6.548;2023-05-07T09:37:15;12.60;99.90
51902;DHT22;37929;53.218;6.548;2023-05-07T09:39:43;12.60;99.90
51902;DHT22;37929;53.218;6.548;2023-05-07T09:42:15;12.70;99.90
51902;DHT22;37929;53.218;6.548;2023-05-07T09:44:44;12.70;99.90
51902;DHT22;37929;53.218;6.548;2023-05-07T09:47:18;12.70;99.90
51902;DHT22;37929;53.218;6.548;2023-05-07T09:49:50;12.80;99.90
51902;DHT22;37929;53.218;6.548;2023-05-07T09:52:20;12.80;99.90
51902;DHT22;37929;53.218;6.548;2023-05-07T09:54:47;12.80;99.90
51902;DHT22;37929;53.218;6.548;2023-05-07T09:57:17;13.00;99.90
51902;DHT22;37929;53.218;6.548;2023-05-07T09:59:46;13.10;99.90
51902;DHT22;37929;53.218;6.548;2023-05-07T10:02:15;13.10;99.90
51902;DHT22;37929;53.218;6.548;2023-05-07T10:04:43;13.20;99.90
51902;DHT22;37929;53.218;6.548;2023-05-07T10:07:09;13.20;99.90
51902;DHT22;37929;53.218;6.548;2023-05-07T10:09:45;13.30;99.90
51902;DHT22;37929;53.218;6.548;2023-05-07T10:12:12;13.30;99.90
51902;DHT22;37929;53.218;6.548;2023-05-07T10:14:38;13.30;99.90
51902;DHT22;37929;53.218;6.548;2023-05-07T10:17:07;13.30;99.90
51902;DHT22;37929;53.218;6.548;2023-05-07T10:19:39;13.30;99.90
51902;DHT22;37929;53.218;6.548;2023-05-07T10:22:06;13.30;99.90
51902;DHT22;37929;53.218;6.548;2023-05-07T10:24:34;13.30;99.90
51902;DHT22;37929;53.218;6.548;2023-05-07T10:27:04;13.30;99.90
51902;DHT22;37929;53.218;6.548;2023-05-07T10:29:53;13.40;99.90
51902;DHT22;37929;53.218;6.548;2023-05-07T10:32:51;13.30;99.90
51902;DHT22;37929;53.218;6.548;2023-05-07T10:35:25;13.40;99.90
51902;DHT22;37929;53.218;6.548;2023-05-07T10:37:51;13.40;99.90
51902;DHT22;37929;53.218;6.548;2023-05-07T10:40:20;13.40;99.90
51902;DHT22;37929;53.218;6.548;2023-05-07T10:43:03;13.50;99.90
51902;DHT22;37929;53.218;6.548;2023-05-07T10:45:40;13.50;99.90
51902;DHT22;37929;53.218;6.548;2023-05-07T10:48:15;13.50;99.90
51902;DHT22;37929;53.218;6.548;2023-05-07T10:50:42;13.50;99.90
51902;DHT22;37929;53.218;6.548;2023-05-07T10:55:48;13.90;99.90
51902;DHT22;37929;53.218;6.548;2023-05-07T10:58:27;14.20;99.90
51902;DHT22;37929;53.218;6.548;2023-05-07T11:01:01;14.40;99.90
51902;DHT22;37929;53.218;6.548;2023-05-07T11:03:28;14.50;99.90
51902;DHT22;37929;53.218;6.548;2023-05-07T11:06:24;14.60;99.90
51902;DHT22;37929;53.218;6.548;2023-05-07T11:08:55;14.80;99.90
51902;DHT22;37929;53.218;6.548;2023-05-07T11:11:52;14.90;99.90
51902;DHT22;37929;53.218;6.548;2023-05-07T11:14:43;15.00;99.90
51902;DHT22;37929;53.218;6.548;2023-05-07T11:17:13;15.10;99.90
51902;DHT22;37929;53.218;6.548;2023-05-07T11:20:03;15.20;99.90
51902;DHT22;37929;53.218;6.548;2023-05-07T11:25:17;15.40;99.90
51902;DHT22;37929;53.218;6.548;2023-05-07T11:27:44;15.50;99.90
51902;DHT22;37929;53.218;6.548;2023-05-07T11:30:17;14.90;99.90
51902;DHT22;37929;53.218;6.548;2023-05-07T11:32:49;15.40;99.90
51902;DHT22;37929;53.218;6.548;2023-05-07T11:35:15;15.40;99.90
51902;DHT22;37929;53.218;6.548;2023-05-07T11:37:46;15.40;99.90
51902;DHT22;37929;53.218;6.548;2023-05-07T11:40:12;15.40;99.90
51902;DHT22;37929;53.218;6.548;2023-05-07T11:42:40;15.50;99.90
51902;DHT22;37929;53.218;6.548;2023-05-07T11:45:08;15.60;99.90
51902;DHT22;37929;53.218;6.548;2023-05-07T11:47:37;15.70;99.90
51902;DHT22;37929;53.218;6.548;2023-05-07T11:50:18;15.70;99.90
51902;DHT22;37929;53.218;6.548;2023-05-07T11:52:52;15.90;99.90
51902;DHT22;37929;53.218;6.548;2023-05-07T11:55:18;16.00;99.90
51902;DHT22;37929;53.218;6.548;2023-05-07T11:57:55;16.00;99.90
51902;DHT22;37929;53.218;6.548;2023-05-07T12:00:21;16.00;99.90
51902;DHT22;37929;53.218;6.548;2023-05-07T12:02:47;16.10;99.90
51902;DHT22;37929;53.218;6.548;2023-05-07T12:05:16;16.10;99.90
51902;DHT22;37929;53.218;6.548;2023-05-07T12:07:42;16.30;99.90
51902;DHT22;37929;53.218;6.548;2023-05-07T12:10:08;16.40;99.90
51902;DHT22;37929;53.218;6.548;2023-05-07T12:12:45;16.20;99.90
51902;DHT22;37929;53.218;6.548;2023-05-07T12:15:17;16.60;99.90
51902;DHT22;37929;53.218;6.548;2023-05-07T12:17:50;16.70;99.90
51902;DHT22;37929;53.218;6.548;2023-05-07T12:20:24;16.60;99.90
51902;DHT22;37929;53.218;6.548;2023-05-07T12:22:50;16.80;99.90
51902;DHT22;37929;53.218;6.548;2023-05-07T12:25:30;16.70;99.90
51902;DHT22;37929;53.218;6.548;2023-05-07T12:28:14;16.70;99.90
51902;DHT22;37929;53.218;6.548;2023-05-07T12:30:44;16.80;99.90
51902;DHT22;37929;53.218;6.548;2023-05-07T12:33:18;16.70;99.90
51902;DHT22;37929;53.218;6.548;2023-05-07T12:35:44;16.70;99.90
51902;DHT22;37929;53.218;6.548;2023-05-07T12:38:12;16.70;99.90
51902;DHT22;37929;53.218;6.548;2023-05-07T12:40:46;16.70;99.90
51902;DHT22;37929;53.218;6.548;2023-05-07T12:43:24;17.10;99.90
51902;DHT22;37929;53.218;6.548;2023-05-07T12:45:53;16.60;99.90
51902;DHT22;37929;53.218;6.548;2023-05-07T12:48:19;16.60;99.90
51902;DHT22;37929;53.218;6.548;2023-05-07T12:50:52;16.60;99.90
51902;DHT22;37929;53.218;6.548;2023-05-07T12:53:24;16.70;99.90
51902;DHT22;37929;53.218;6.548;2023-05-07T12:55:52;16.70;99.90
51902;DHT22;37929;53.218;6.548;2023-05-07T12:58:24;16.80;99.90
51902;DHT22;37929;53.218;6.548;2023-05-07T13:00:50;16.90;99.90
51902;DHT22;37929;53.218;6.548;2023-05-07T13:03:37;17.10;99.90
51902;DHT22;37929;53.218;6.548;2023-05-07T13:06:06;17.20;99.90
51902;DHT22;37929;53.218;6.548;2023-05-07T13:08:42;17.30;99.90
51902;DHT22;37929;53.218;6.548;2023-05-07T13:11:12;17.30;99.90
51902;DHT22;37929;53.218;6.548;2023-05-07T13:13:40;17.40;99.90
51902;DHT22;37929;53.218;6.548;2023-05-07T13:16:10;17.50;99.90
51902;DHT22;37929;53.218;6.548;2023-05-07T13:18:44;17.50;99.90
51902;DHT22;37929;53.218;6.548;2023-05-07T13:21:15;17.60;99.90
51902;DHT22;37929;53.218;6.548;2023-05-07T13:23:41;18.30;99.90
51902;DHT22;37929;53.218;6.548;2023-05-07T13:26:06;17.90;99.90
51902;DHT22;37929;53.218;6.548;2023-05-07T13:28:33;18.00;99.90
51902;DHT22;37929;53.218;6.548;2023-05-07T13:30:59;18.10;99.90
51902;DHT22;37929;53.218;6.548;2023-05-07T13:33:28;18.20;99.90
51902;DHT22;37929;53.218;6.548;2023-05-07T13:36:06;18.10;99.90
51902;DHT22;37929;53.218;6.548;2023-05-07T13:38:35;18.00;99.90
51902;DHT22;37929;53.218;6.548;2023-05-07T13:41:06;18.10;99.90
51902;DHT22;37929;53.218;6.548;2023-05-07T13:44:03;18.10;99.90
51902;DHT22;37929;53.218;6.548;2023-05-07T13:46:47;18.30;99.90
51902;DHT22;37929;53.218;6.548;2023-05-07T13:53:15;18.50;99.90
51902;DHT22;37929;53.218;6.548;2023-05-07T13:59:16;18.20;99.90
51902;DHT22;37929;53.218;6.548;2023-05-07T14:02:11;18.20;99.90
51902;DHT22;37929;53.218;6.548;2023-05-07T14:05:00;17.80;99.90
51902;DHT22;37929;53.218;6.548;2023-05-07T14:07:42;18.10;99.90
51902;DHT22;37929;53.218;6.548;2023-05-07T14:15:35;18.00;99.90
51902;DHT22;37929;53.218;6.548;2023-05-07T14:21:36;18.10;99.90
51902;DHT22;37929;53.218;6.548;2023-05-07T14:24:43;18.20;99.90
51902;DHT22;37929;53.218;6.548;2023-05-07T14:27:47;18.10;99.90
51902;DHT22;37929;53.218;6.548;2023-05-07T14:30:18;18.10;99.90
51902;DHT22;37929;53.218;6.548;2023-05-07T14:32:53;18.20;99.90
51902;DHT22;37929;53.218;6.548;2023-05-07T14:35:40;18.70;99.90
51902;DHT22;37929;53.218;6.548;2023-05-07T14:38:10;18.60;99.90
51902;DHT22;37929;53.218;6.548;2023-05-07T14:40:55;18.30;99.90
51902;DHT22;37929;53.218;6.548;2023-05-07T14:43:24;18.40;99.90
51902;DHT22;37929;53.218;6.548;2023-05-07T14:49:05;18.60;99.90
51902;DHT22;37929;53.218;6.548;2023-05-07T14:51:43;18.40;99.90
51902;DHT22;37929;53.218;6.548;2023-05-07T14:54:13;18.20;99.90
51902;DHT22;37929;53.218;6.548;2023-05-07T14:56:49;18.30;99.90
51902;DHT22;37929;53.218;6.548;2023-05-07T15:02:41;18.30;99.90
51902;DHT22;37929;53.218;6.548;2023-05-07T15:05:47;17.90;99.90
51902;DHT22;37929;53.218;6.548;2023-05-07T15:08:57;18.50;99.90
51902;DHT22;37929;53.218;6.548;2023-05-07T15:12:04;18.80;99.90
51902;DHT22;37929;53.218;6.548;2023-05-07T15:21:36;18.30;99.90
51902;DHT22;37929;53.218;6.548;2023-05-07T15:24:30;18.40;99.90
51902;DHT22;37929;53.218;6.548;2023-05-07T15:27:03;18.40;99.90
51902;DHT22;37929;53.218;6.548;2023-05-07T15:29:35;18.30;99.90
51902;DHT22;37929;53.218;6.548;2023-05-07T15:32:00;18.30;99.90
51902;DHT22;37929;53.218;6.548;2023-05-07T15:34:29;18.30;99.90
51902;DHT22;37929;53.218;6.548;2023-05-07T15:37:39;18.30;99.90
51902;DHT22;37929;53.218;6.548;2023-05-07T15:43:26;18.20;99.90
51902;DHT22;37929;53.218;6.548;2023-05-07T15:46:26;18.00;99.90
51902;DHT22;37929;53.218;6.548;2023-05-07T15:49:23;18.40;99.90
51902;DHT22;37929;53.218;6.548;2023-05-07T15:52:05;18.30;99.90
51902;DHT22;37929;53.218;6.548;2023-05-07T15:55:09;18.40;99.90
51902;DHT22;37929;53.218;6.548;2023-05-07T16:01:26;18.80;99.90
51902;DHT22;37929;53.218;6.548;2023-05-07T16:04:07;18.40;99.90
51902;DHT22;37929;53.218;6.548;2023-05-07T16:06:41;18.50;99.90
51902;DHT22;37929;53.218;6.548;2023-05-07T16:09:14;18.50;99.90
51902;DHT22;37929;53.218;6.548;2023-05-07T16:11:51;18.60;99.90
51902;DHT22;37929;53.218;6.548;2023-05-07T16:14:18;18.60;99.90
51902;DHT22;37929;53.218;6.548;2023-05-07T16:16:54;18.60;99.90
51902;DHT22;37929;53.218;6.548;2023-05-07T16:19:20;18.60;99.90
51902;DHT22;37929;53.218;6.548;2023-05-07T16:21:53;18.50;99.90
51902;DHT22;37929;53.218;6.548;2023-05-07T16:24:26;18.40;99.90
51902;DHT22;37929;53.218;6.548;2023-05-07T16:26:58;18.40;99.90
51902;DHT22;37929;53.218;6.548;2023-05-07T16:29:27;18.30;99.90